createdAt,value
2023-01-09T00:03:09.852Z,-143.95
2023-01-09T00:08:34.447Z,-143.95
2023-01-09T00:13:57.781Z,-143.95
2023-01-09T00:19:21.273Z,-143.95
2023-01-09T00:24:46.071Z,-143.95
2023-01-09T00:30:11.890Z,-143.95
2023-01-09T00:35:35.781Z,-143.95
2023-01-09T00:41:03.350Z,-143.95
2023-01-09T00:46:31.702Z,-143.95
2023-01-09T00:51:56.286Z,-143.95
2023-01-09T00:57:21.313Z,-143.95
2023-01-09T01:02:44.835Z,-143.95
2023-01-09T01:08:12.425Z,-143.95
2023-01-09T01:13:37.737Z,-143.95
2023-01-09T01:19:01.268Z,-143.95
2023-01-09T01:24:25.065Z,-143.95
2023-01-09T01:29:50.317Z,-143.95
2023-01-09T01:35:14.018Z,-143.95
2023-01-09T01:40:38.261Z,-143.95
2023-01-09T01:46:02.833Z,-143.95
2023-01-09T01:51:30.302Z,-143.95
2023-01-09T01:56:58.485Z,-143.95
2023-01-09T02:02:26.737Z,-143.95
2023-01-09T02:07:50.092Z,-143.95
2023-01-09T02:13:14.770Z,-143.95
2023-01-09T02:18:52.020Z,-143.95
2023-01-09T02:24:56.037Z,-143.95
2023-01-09T02:30:33.564Z,-143.95
2023-01-09T02:36:11.368Z,-143.95
2023-01-09T02:41:50.523Z,-143.95
2023-01-09T02:47:40.573Z,-143.95
2023-01-09T02:53:28.855Z,-143.95
2023-01-09T02:59:15.926Z,-143.95
2023-01-09T03:04:51.871Z,-143.95
2023-01-09T03:10:20.673Z,-143.95
2023-01-09T03:15:50.744Z,-143.95
2023-01-09T03:21:17.519Z,-143.95
2023-01-09T03:26:42.773Z,-143.95
2023-01-09T03:32:06.515Z,-143.95
2023-01-09T03:37:36.426Z,-143.95
2023-01-09T03:43:05.169Z,-143.95
2023-01-09T03:48:34.360Z,-143.95
2023-01-09T03:54:04.710Z,-143.95
2023-01-09T03:59:33.852Z,-143.95
2023-01-09T04:05:03.389Z,-143.95
2023-01-09T04:10:32.495Z,-143.95
2023-01-09T04:16:01.964Z,-143.95
2023-01-09T04:21:28.751Z,-143.95
2023-01-09T04:26:59.442Z,-143.95
2023-01-09T04:32:28.472Z,-143.95
2023-01-09T04:37:55.950Z,-143.95
2023-01-09T04:43:26.410Z,-143.95
2023-01-09T04:48:51.881Z,-143.95
2023-01-09T04:54:21.628Z,-143.95
2023-01-09T04:59:46.567Z,-143.95
2023-01-09T05:05:16.048Z,-143.95
2023-01-09T05:10:38.461Z,-143.95
2023-01-09T05:16:09.813Z,-143.95
2023-01-09T05:21:33.573Z,-143.95
2023-01-09T05:27:05.061Z,-143.95
2023-01-09T05:32:30.013Z,-143.95
2023-01-09T05:37:58.899Z,-143.95
2023-01-09T05:43:22.598Z,-143.95
2023-01-09T05:48:47.614Z,-143.95
2023-01-09T05:54:11.057Z,-143.95
2023-01-09T05:59:35.119Z,-143.95
2023-01-09T06:05:00.090Z,-143.95
2023-01-09T06:10:23.632Z,-143.95
2023-01-09T06:15:48.700Z,-143.95
2023-01-09T06:21:13.656Z,-143.95
2023-01-09T06:26:36.915Z,-143.95
2023-01-09T06:32:00.785Z,-143.95
2023-01-09T06:37:25.901Z,-143.95
2023-01-09T06:42:50.454Z,-143.95
2023-01-09T06:48:14.313Z,-143.95
2023-01-09T06:53:39.149Z,-143.95
2023-01-09T06:59:02.617Z,-143.95
2023-01-09T07:04:25.573Z,-143.95
2023-01-09T07:09:50.229Z,-143.95
2023-01-09T07:15:13.283Z,-143.95
2023-01-09T07:20:36.912Z,-143.95
2023-01-09T07:26:02.743Z,-143.95
2023-01-09T07:31:26.416Z,-143.95
2023-01-09T07:36:51.352Z,-143.95
2023-01-09T07:42:16.434Z,-143.95
2023-01-09T07:47:41.228Z,-143.95
2023-01-09T07:53:09.975Z,-143.95
2023-01-09T07:58:41.012Z,-143.95
2023-01-09T08:04:10.105Z,-143.95
2023-01-09T08:09:39.234Z,-143.95
2023-01-09T08:15:10.545Z,-143.95
2023-01-09T08:20:39.290Z,-143.95
2023-01-09T08:26:08.153Z,-143.95
2023-01-09T08:31:38.723Z,-143.95
2023-01-09T08:37:08.023Z,-143.95
2023-01-09T08:42:55.181Z,-143.95
2023-01-09T08:48:25.591Z,-143.95
2023-01-09T08:53:53.737Z,-143.95
2023-01-09T08:59:23.092Z,-143.95
2023-01-09T09:04:54.474Z,-143.95
2023-01-09T09:10:24.194Z,-143.95
2023-01-09T09:15:53.116Z,-143.95
2023-01-09T09:21:23.425Z,-143.95
2023-01-09T09:26:52.116Z,-143.95
2023-01-09T09:32:21.554Z,-143.95
2023-01-09T09:37:59.139Z,-143.95
2023-01-09T09:44:10.665Z,-143.95
2023-01-09T09:49:50.960Z,-143.95
2023-01-09T09:55:28.448Z,-143.95
2023-01-09T10:00:59.523Z,-143.95
2023-01-09T14:35:00.098Z,-4.01
2023-01-09T14:40:27.425Z,-4.02
2023-01-09T14:46:04.643Z,-4.07
2023-01-09T14:51:39.771Z,-4.07
2023-01-09T14:57:24.841Z,-4.10
2023-01-09T15:02:54.742Z,-4.16
2023-01-09T15:08:28.656Z,-4.31
2023-01-09T15:19:24.561Z,-4.58
2023-01-09T15:24:50.470Z,-4.72
2023-01-09T15:30:19.592Z,-4.78
2023-01-09T15:35:46.767Z,-4.94
2023-01-09T15:41:38.698Z,-5.03
2023-01-09T15:47:15.751Z,-5.11
2023-01-09T15:52:46.121Z,-5.14
2023-01-09T15:58:29.158Z,-5.30
2023-01-09T16:04:04.923Z,-5.38
2023-01-09T16:09:36.464Z,-5.41
2023-01-09T16:15:07.534Z,-5.43
2023-01-09T16:20:30.765Z,-5.58
2023-01-09T16:26:07.938Z,-5.56
2023-01-09T16:31:38.575Z,-5.57
2023-01-09T16:37:08.017Z,-5.65
2023-01-09T16:42:54.853Z,-5.74
2023-01-09T16:48:25.933Z,-5.86
2023-01-09T16:53:55.175Z,-5.95
2023-01-09T16:59:28.160Z,-6.01
2023-01-09T17:04:59.481Z,-6.03
2023-01-09T17:10:28.263Z,-6.21
2023-01-09T17:15:58.723Z,-6.36
2023-01-09T17:21:30.852Z,-6.46
2023-01-09T17:27:19.356Z,-6.51
2023-01-09T17:32:49.158Z,-6.54
2023-01-09T17:38:20.313Z,-6.68
2023-01-09T17:43:49.167Z,-6.84
2023-01-09T17:49:20.619Z,-6.91
2023-01-09T17:54:51.373Z,-6.96
2023-01-09T18:00:26.745Z,-7.18
2023-01-09T18:05:56.315Z,-7.20
2023-01-09T18:11:26.999Z,-7.36
2023-01-09T18:16:56.025Z,-7.29
2023-01-09T18:22:26.003Z,-7.39
2023-01-09T18:27:56.359Z,-7.44
2023-01-09T18:33:25.150Z,-7.54
2023-01-09T18:38:54.814Z,-7.59
2023-01-09T18:44:25.950Z,-7.80
2023-01-09T18:49:55.237Z,-7.89
2023-01-09T18:55:24.350Z,-8.00
2023-01-09T19:01:00.211Z,-8.00
2023-01-09T22:49:41.128Z,-9.72
2023-01-09T22:55:17.490Z,-9.75
2023-01-09T23:00:47.015Z,-9.72
2023-01-09T23:06:19.013Z,-9.73
2023-01-09T23:12:10.759Z,-9.66
2023-01-09T23:17:39.677Z,-9.62
2023-01-09T23:23:05.012Z,-9.69
2023-01-09T23:28:33.816Z,-9.72
2023-01-09T23:34:03.281Z,-9.65
2023-01-09T23:39:32.145Z,-9.67
2023-01-09T23:45:00.836Z,-9.62
2023-01-09T23:50:25.837Z,-9.57
2023-01-09T23:55:55.281Z,-9.54
